createdAt,value
2018-11-01T00:01:51.816Z,27.43
2018-11-01T00:04:19.579Z,26.37
2018-11-01T00:06:48.455Z,44.90
2018-11-01T00:09:16.780Z,47.67
2018-11-01T00:11:45.121Z,50.93
2018-11-01T00:14:13.452Z,47.93
2018-11-01T00:16:41.203Z,46.03
2018-11-01T00:19:09.539Z,40.57
2018-11-01T00:21:38.079Z,50.43
2018-11-01T00:24:06.198Z,49.40
2018-11-01T00:26:34.541Z,51.17
2018-11-01T00:29:03.453Z,53.03
2018-11-01T00:31:31.218Z,38.57
2018-11-01T00:33:59.544Z,49.20
2018-11-01T00:36:28.461Z,42.07
2018-11-01T00:38:56.778Z,31.20
2018-11-01T00:41:24.518Z,39.03
2018-11-01T00:43:53.416Z,48.63
2018-11-01T00:46:21.155Z,62.13
2018-11-01T00:48:50.057Z,68.87
2018-11-01T00:51:18.381Z,67.77
2018-11-01T00:53:46.118Z,65.60
2018-11-01T00:56:14.444Z,55.47
2018-11-01T00:58:42.763Z,53.77
2018-11-01T01:01:11.670Z,49.87
2018-11-01T01:03:39.408Z,53.10
2018-11-01T01:06:07.876Z,47.73
2018-11-01T01:08:36.652Z,52.63
2018-11-01T01:11:05.305Z,43.77
2018-11-01T01:13:33.037Z,40.80
2018-11-01T01:16:01.362Z,38.73
2018-11-01T01:18:29.679Z,37.10
2018-11-01T01:20:58.004Z,39.30
2018-11-01T01:23:26.923Z,43.30
2018-11-01T01:25:55.248Z,54.30
2018-11-01T01:28:23.572Z,55.13
2018-11-01T01:30:51.319Z,50.57
2018-11-01T01:33:19.736Z,55.40
2018-11-01T01:35:48.640Z,60.53
2018-11-01T01:38:16.949Z,70.70
2018-11-01T01:40:44.696Z,58.33
2018-11-01T01:43:13.594Z,57.93
2018-11-01T01:45:41.333Z,61.37
2018-11-01T01:48:09.947Z,54.40
2018-11-01T01:50:38.056Z,52.97
2018-11-01T01:53:06.313Z,58.47
2018-11-01T01:55:35.222Z,64.93
2018-11-01T01:58:03.535Z,57.63
2018-11-01T02:00:31.279Z,49.67
2018-11-01T02:03:00.192Z,60.03
2018-11-01T02:05:27.932Z,69.77
2018-11-01T02:07:56.844Z,78.83
2018-11-01T02:10:24.589Z,72.17
2018-11-01T02:12:52.909Z,70.20
2018-11-01T02:15:21.222Z,72.27
2018-11-01T02:17:50.134Z,85.47
2018-11-01T02:20:17.872Z,86.67
2018-11-01T02:22:46.771Z,94.10
2018-11-01T02:25:15.117Z,91.40
2018-11-01T02:27:43.438Z,89.27
2018-11-01T02:30:11.767Z,91.50
2018-11-01T02:32:40.084Z,99.83
2018-11-01T02:35:08.418Z,102.00
2018-11-01T02:37:36.494Z,104.50
2018-11-01T02:40:04.496Z,107.83
2018-11-01T02:42:33.409Z,108.47
2018-11-01T02:45:01.161Z,110.30
2018-11-01T02:47:29.483Z,114.77
2018-11-01T02:49:58.391Z,113.67
2018-11-01T02:52:26.719Z,100.00
2018-11-01T02:54:55.034Z,94.23
2018-11-01T02:57:23.367Z,101.17
2018-11-01T02:59:51.777Z,99.33
2018-11-01T03:02:19.442Z,103.47
2018-11-01T03:04:47.814Z,104.93
2018-11-01T03:07:16.141Z,99.00
2018-11-01T03:09:44.486Z,100.17
2018-11-01T03:12:13.382Z,87.90
2018-11-01T03:14:41.710Z,106.73
2018-11-01T03:17:09.575Z,99.93
2018-11-01T03:19:37.775Z,97.87
2018-11-01T03:22:06.674Z,96.60
2018-11-01T03:24:34.418Z,99.00
2018-11-01T03:27:03.359Z,100.90
2018-11-01T03:29:31.683Z,95.77
2018-11-01T03:32:00.020Z,100.37
2018-11-01T03:34:28.345Z,99.63
2018-11-01T03:36:56.665Z,100.03
2018-11-01T03:39:24.997Z,91.53
2018-11-01T03:41:52.753Z,85.77
2018-11-01T03:44:21.674Z,68.40
2018-11-01T03:46:49.999Z,69.13
2018-11-01T03:49:17.739Z,67.77
2018-11-01T03:51:46.695Z,77.70
2018-11-01T03:54:14.598Z,67.20
2018-11-01T03:56:42.725Z,72.90
2018-11-01T03:59:11.635Z,74.23
2018-11-01T04:01:39.373Z,63.87
2018-11-01T04:04:08.282Z,64.80
2018-11-01T04:06:36.598Z,62.27
2018-11-01T04:09:04.922Z,62.97
2018-11-01T04:11:33.247Z,59.90
2018-11-01T04:14:01.570Z,57.73
2018-11-01T04:16:29.308Z,58.53
2018-11-01T04:18:58.224Z,53.27
2018-11-01T04:21:25.968Z,51.10
2018-11-01T04:23:54.297Z,57.50
2018-11-01T04:26:23.042Z,58.40
2018-11-01T04:28:51.573Z,54.47
2018-11-01T04:31:19.310Z,49.87
2018-11-01T04:33:48.315Z,48.30
2018-11-01T04:36:16.014Z,48.00
2018-11-01T04:38:44.334Z,37.87
2018-11-01T04:41:12.649Z,38.23
2018-11-01T04:43:41.545Z,38.90
2018-11-01T04:46:09.328Z,37.03
2018-11-01T04:48:37.941Z,39.57
2018-11-01T04:51:06.548Z,37.90
2018-11-01T04:53:34.278Z,37.17
2018-11-01T04:56:03.147Z,37.80
2018-11-01T04:58:31.497Z,39.57
2018-11-01T05:00:59.238Z,40.53
2018-11-01T05:03:27.636Z,40.80
2018-11-01T05:05:56.460Z,39.73
2018-11-01T05:08:24.218Z,42.03
2018-11-01T05:10:53.120Z,48.67
2018-11-01T05:13:21.450Z,47.47
2018-11-01T05:15:49.773Z,45.07
2018-11-01T05:18:17.515Z,46.93
2018-11-01T05:20:45.852Z,47.07
2018-11-01T05:23:14.170Z,43.27
2018-11-01T05:25:42.509Z,40.77
2018-11-01T05:28:11.397Z,45.77
2018-11-01T05:30:39.743Z,45.60
2018-11-01T05:33:08.063Z,46.67
2018-11-01T05:35:36.103Z,48.90
2018-11-01T05:38:04.144Z,49.37
2018-11-01T05:40:32.456Z,46.97
2018-11-01T05:43:01.357Z,43.73
2018-11-01T05:45:29.095Z,43.40
2018-11-01T05:47:58.009Z,46.10
2018-11-01T05:50:26.326Z,50.47
2018-11-01T05:52:54.066Z,49.87
2018-11-01T05:55:22.967Z,48.27
2018-11-01T05:57:51.292Z,48.17
2018-11-01T06:00:19.031Z,47.23
2018-11-01T06:02:47.349Z,44.33
2018-11-01T06:05:16.251Z,46.33
2018-11-01T06:07:44.573Z,39.33
2018-11-01T06:10:12.315Z,41.97
2018-11-01T06:12:40.677Z,46.43
2018-11-01T06:15:09.536Z,38.17
2018-11-01T06:17:37.859Z,38.03
2018-11-01T06:20:06.178Z,38.20
2018-11-01T06:22:33.925Z,37.77
2018-11-01T06:25:02.236Z,85.80
2018-11-01T06:27:31.150Z,45.17
2018-11-01T06:29:59.469Z,41.83
2018-11-01T06:32:27.819Z,41.87
2018-11-01T06:34:56.148Z,38.90
2018-11-01T06:37:24.476Z,39.97
2018-11-01T06:39:52.808Z,42.87
2018-11-01T06:42:21.141Z,62.10
2018-11-01T06:44:49.488Z,70.50
2018-11-01T06:47:17.791Z,72.27
2018-11-01T06:49:45.795Z,42.00
2018-11-01T06:52:13.875Z,41.03
2018-11-01T06:54:42.545Z,37.83
2018-11-01T06:57:10.871Z,41.77
2018-11-01T06:59:39.202Z,39.47
2018-11-01T07:02:08.113Z,39.47
2018-11-01T07:04:35.845Z,36.97
2018-11-01T07:07:04.170Z,37.00
2018-11-01T07:09:33.077Z,39.07
2018-11-01T07:12:00.816Z,42.37
2018-11-01T07:14:29.714Z,37.70
2018-11-01T07:16:57.480Z,37.17
2018-11-01T07:19:26.362Z,36.27
2018-11-01T07:21:54.706Z,31.53
2018-11-01T07:24:22.446Z,33.80
2018-11-01T07:26:50.776Z,32.57
2018-11-01T07:29:19.361Z,29.97
2018-11-01T07:31:48.261Z,30.83
2018-11-01T07:34:16.642Z,33.30
2018-11-01T07:36:44.394Z,26.37
2018-11-01T07:39:13.303Z,27.70
2018-11-01T07:41:41.637Z,30.43
2018-11-01T07:44:09.966Z,31.97
2018-11-01T07:46:37.718Z,26.73
2018-11-01T07:49:06.628Z,27.73
2018-11-01T07:51:35.021Z,27.63
2018-11-01T07:54:02.780Z,24.80
2018-11-01T07:56:31.116Z,25.03
2018-11-01T07:58:59.456Z,25.00
2018-11-01T08:01:27.785Z,25.70
2018-11-01T08:03:56.122Z,22.77
2018-11-01T08:06:24.448Z,21.57
2018-11-01T08:08:53.639Z,27.23
2018-11-01T08:11:22.458Z,25.80
2018-11-01T08:13:50.521Z,98.10
2018-11-01T08:16:18.864Z,64.57
2018-11-01T08:18:48.686Z,29.80
2018-11-01T08:21:16.607Z,28.00
2018-11-01T08:23:45.359Z,21.67
2018-11-01T08:26:13.897Z,23.67
2018-11-01T08:28:42.236Z,26.77
2018-11-01T08:31:10.215Z,22.57
2018-11-01T08:33:39.133Z,20.53
2018-11-01T08:36:06.913Z,22.23
2018-11-01T08:38:35.885Z,28.57
2018-11-01T08:41:04.269Z,23.70
2018-11-01T08:43:32.547Z,21.13
2018-11-01T08:46:00.304Z,21.00
2018-11-01T08:48:28.638Z,20.80
2018-11-01T08:50:57.015Z,20.00
2018-11-01T08:53:25.976Z,20.00
2018-11-01T08:55:53.702Z,22.47
2018-11-01T08:58:22.666Z,22.40
2018-11-01T09:00:50.418Z,40.13
2018-11-01T09:03:18.757Z,52.73
2018-11-01T09:05:47.667Z,21.07
2018-11-01T09:08:37.505Z,21.17
2018-11-01T09:11:25.685Z,21.37
2018-11-01T09:13:54.111Z,19.50
2018-11-01T09:16:22.349Z,22.47
2018-11-01T09:18:51.269Z,23.23
2018-11-01T09:21:19.600Z,24.47
2018-11-01T09:23:47.940Z,23.43
2018-11-01T09:26:16.249Z,25.23
2018-11-01T09:28:44.571Z,30.73
2018-11-01T09:31:12.903Z,25.13
2018-11-01T09:33:41.414Z,23.13
2018-11-01T09:36:09.997Z,18.30
2018-11-01T09:38:37.611Z,27.00
2018-11-01T09:41:06.068Z,21.87
2018-11-01T09:43:34.866Z,24.37
2018-11-01T09:46:02.801Z,20.60
2018-11-01T09:48:31.583Z,27.80
2018-11-01T09:50:59.325Z,24.53
2018-11-01T09:53:28.250Z,20.57
2018-11-01T09:55:56.122Z,28.63
2018-11-01T09:58:24.904Z,35.53
2018-11-01T10:00:52.664Z,31.23
2018-11-01T10:03:21.558Z,28.27
2018-11-01T10:05:49.353Z,29.30
2018-11-01T10:08:18.217Z,25.70
2018-11-01T10:10:46.571Z,28.03
2018-11-01T10:13:16.036Z,32.77
2018-11-01T10:15:43.082Z,34.70
2018-11-01T10:18:11.614Z,30.27
2018-11-01T10:20:40.161Z,24.97
2018-11-01T10:23:07.945Z,24.03
2018-11-01T10:25:36.260Z,24.80
2018-11-01T10:28:05.400Z,21.67
2018-11-01T10:30:34.711Z,25.17
2018-11-01T10:33:01.430Z,25.77
2018-11-01T10:35:30.341Z,25.67
2018-11-01T10:37:58.736Z,26.03
2018-11-01T10:40:27.083Z,26.47
2018-11-01T10:42:54.835Z,28.63
2018-11-01T10:45:23.162Z,26.47
2018-11-01T10:47:52.224Z,29.70
2018-11-01T10:50:20.445Z,33.30
2018-11-01T10:52:48.774Z,24.90
2018-11-01T10:55:17.101Z,25.23
2018-11-01T10:57:45.436Z,29.50
2018-11-01T11:00:13.877Z,26.17
2018-11-01T11:02:42.621Z,29.10
2018-11-01T11:05:10.375Z,26.40
2018-11-01T11:07:40.286Z,26.47
2018-11-01T11:10:07.285Z,23.33
2018-11-01T11:12:36.214Z,26.37
2018-11-01T11:15:04.585Z,24.53
2018-11-01T11:17:33.012Z,26.83
2018-11-01T11:20:00.797Z,26.37
2018-11-01T11:22:29.677Z,28.93
2018-11-01T11:24:57.993Z,28.23
2018-11-01T11:27:26.323Z,26.50
2018-11-01T11:29:54.681Z,24.20
2018-11-01T11:32:22.454Z,27.57
2018-11-01T11:34:51.588Z,23.97
2018-11-01T11:37:19.925Z,27.90
2018-11-01T11:39:49.307Z,33.40
2018-11-01T11:42:16.343Z,38.67
2018-11-01T11:44:45.264Z,25.67
2018-11-01T11:47:13.594Z,24.43
2018-11-01T11:49:41.926Z,27.30
2018-11-01T11:52:10.593Z,27.83
2018-11-01T11:54:38.921Z,42.97
2018-11-01T11:57:06.919Z,24.83
2018-11-01T11:59:35.937Z,26.83
2018-11-01T12:02:03.702Z,24.60
2018-11-01T12:04:32.630Z,23.43
2018-11-01T12:07:00.371Z,24.47
2018-11-01T12:09:29.278Z,24.07
2018-11-01T12:11:57.605Z,28.17
2018-11-01T12:14:25.939Z,27.37
2018-11-01T12:16:53.696Z,30.07
2018-11-01T12:19:22.020Z,26.57
2018-11-01T12:21:50.927Z,26.73
2018-11-01T12:24:18.677Z,26.20
2018-11-01T12:26:47.016Z,25.97
2018-11-01T12:29:15.373Z,49.57
2018-11-01T12:31:44.585Z,39.60
2018-11-01T12:34:13.375Z,35.87
2018-11-01T12:36:41.118Z,24.47
2018-11-01T12:39:09.450Z,22.43
2018-11-01T12:41:38.502Z,28.80
2018-11-01T12:44:06.743Z,23.67
2018-11-01T12:46:35.169Z,23.13
2018-11-01T12:49:03.567Z,25.57
2018-11-01T12:51:32.204Z,27.87
2018-11-01T12:54:00.860Z,28.30
2018-11-01T12:56:29.371Z,28.50
2018-11-01T12:58:57.083Z,29.73
2018-11-01T13:01:25.449Z,24.70
2018-11-01T13:03:55.147Z,25.53
2018-11-01T13:06:23.479Z,28.43
2018-11-01T13:08:51.796Z,25.43
2018-11-01T13:11:19.692Z,26.57
2018-11-01T13:13:48.662Z,25.30
2018-11-01T13:16:17.068Z,23.23
2018-11-01T13:18:45.540Z,31.17
2018-11-01T13:21:13.979Z,28.00
2018-11-01T13:23:42.545Z,21.07
2018-11-01T13:26:11.003Z,29.03
2018-11-01T13:28:38.836Z,23.70
2018-11-01T13:31:07.782Z,24.50
2018-11-01T13:33:36.125Z,24.40
2018-11-01T13:36:04.463Z,28.53
2018-11-01T13:38:32.803Z,24.23
2018-11-01T13:41:01.618Z,24.03
2018-11-01T13:43:29.623Z,24.97
2018-11-01T13:45:58.056Z,85.67
2018-11-01T13:50:56.113Z,27.03
2018-11-01T13:53:23.801Z,27.27
2018-11-01T13:55:52.241Z,25.83
2018-11-01T13:58:21.179Z,23.50
2018-11-01T14:00:48.926Z,27.70
2018-11-01T14:03:17.840Z,23.53
2018-11-01T14:05:45.684Z,27.47
2018-11-01T14:08:15.555Z,23.37
2018-11-01T14:10:44.458Z,25.50
2018-11-01T14:13:12.974Z,22.50
2018-11-01T14:15:41.312Z,24.03
2018-11-01T14:18:09.592Z,22.80
2018-11-01T14:20:37.337Z,32.83
2018-11-01T14:23:06.321Z,34.63
2018-11-01T14:25:34.778Z,27.70
2018-11-01T14:28:02.362Z,27.50
2018-11-01T14:30:31.281Z,31.50
2018-11-01T14:32:59.609Z,30.27
2018-11-01T14:35:27.347Z,35.87
2018-11-01T14:37:55.713Z,38.80
2018-11-01T14:40:24.590Z,43.40
2018-11-01T14:42:52.338Z,40.43
2018-11-01T14:45:20.690Z,39.50
2018-11-01T14:47:49.025Z,39.30
2018-11-01T14:50:17.487Z,35.03
2018-11-01T14:52:46.690Z,36.67
2018-11-01T14:55:15.785Z,38.70
2018-11-01T14:57:44.217Z,41.13
2018-11-01T15:00:12.063Z,36.93
2018-11-01T15:02:40.400Z,42.43
2018-11-01T15:05:08.795Z,44.50
2018-11-01T15:07:36.562Z,44.50
2018-11-01T15:10:05.523Z,41.97
2018-11-01T15:12:33.836Z,34.40
2018-11-01T15:15:02.184Z,32.73
2018-11-01T15:17:30.522Z,31.83
2018-11-01T15:19:58.837Z,34.23
2018-11-01T15:22:27.168Z,35.63
2018-11-01T15:24:55.569Z,34.80
2018-11-01T15:27:23.913Z,32.23
2018-11-01T15:29:51.761Z,36.00
2018-11-01T15:32:20.326Z,36.27
2018-11-01T15:34:48.887Z,38.17
2018-11-01T15:37:17.459Z,37.83
2018-11-01T15:39:45.775Z,39.60
2018-11-01T15:42:14.088Z,48.70
2018-11-01T15:44:42.527Z,49.07
2018-11-01T15:47:10.973Z,38.63
2018-11-01T15:49:39.354Z,31.03
2018-11-01T15:52:07.116Z,35.07
2018-11-01T15:54:36.046Z,30.17
2018-11-01T15:57:04.378Z,32.70
2018-11-01T15:59:32.817Z,33.67
2018-11-01T16:02:01.196Z,33.67
2018-11-01T16:04:29.548Z,33.90
2018-11-01T16:06:57.338Z,36.03
2018-11-01T16:09:25.718Z,72.17
2018-11-01T16:11:54.660Z,41.77
2018-11-01T16:14:22.990Z,32.60
2018-11-01T16:16:50.746Z,31.93
2018-11-01T16:19:19.367Z,36.70
2018-11-01T16:21:48.273Z,36.27
2018-11-01T16:24:16.611Z,64.00
2018-11-01T16:26:44.373Z,43.67
2018-11-01T16:29:13.272Z,48.63
2018-11-01T16:31:41.605Z,44.10
2018-11-01T16:34:09.985Z,43.70
2018-11-01T16:36:37.737Z,48.00
2018-11-01T16:39:06.948Z,45.33
2018-11-01T16:41:34.711Z,43.53
2018-11-01T16:44:03.659Z,36.37
2018-11-01T16:46:32.042Z,38.00
2018-11-01T16:49:00.734Z,35.73
2018-11-01T16:51:28.785Z,33.87
2018-11-01T16:53:58.195Z,33.83
2018-11-01T16:56:26.534Z,37.30
2018-11-01T16:58:54.863Z,35.53
2018-11-01T17:01:22.685Z,40.43
2018-11-01T17:03:51.905Z,34.80
2018-11-01T17:06:19.652Z,42.17
2018-11-01T17:08:48.755Z,41.37
2018-11-01T17:11:36.105Z,42.00
2018-11-01T17:14:04.463Z,128.63
2018-11-01T17:16:33.113Z,45.40
2018-11-01T17:19:00.961Z,45.57
2018-11-01T17:21:29.916Z,122.83
2018-11-01T17:23:58.225Z,72.30
2018-11-01T17:26:25.980Z,43.80
2018-11-01T17:28:54.885Z,46.60
2018-11-01T17:31:23.217Z,42.17
2018-11-01T17:33:51.634Z,46.10
2018-11-01T17:36:19.919Z,43.73
2018-11-01T17:38:48.264Z,42.57
2018-11-01T17:41:16.012Z,44.87
2018-11-01T17:43:44.966Z,44.83
2018-11-01T17:46:12.736Z,43.67
2018-11-01T17:48:41.104Z,46.97
2018-11-01T17:51:09.583Z,47.83
2018-11-01T17:53:37.782Z,52.27
2018-11-01T17:56:06.664Z,79.13
2018-11-01T17:58:34.446Z,91.63
2018-11-01T18:01:02.772Z,93.10
2018-11-01T18:03:31.703Z,86.30
2018-11-01T18:05:59.461Z,71.07
2018-11-01T18:08:28.435Z,51.17
2018-11-01T18:10:56.725Z,46.43
2018-11-01T18:13:25.063Z,55.17
2018-11-01T18:15:53.398Z,58.17
2018-11-01T18:18:21.152Z,57.07
2018-11-01T18:20:49.505Z,54.07
2018-11-01T18:23:18.339Z,60.73
2018-11-01T18:25:46.315Z,58.90
2018-11-01T18:28:15.106Z,60.30
2018-11-01T18:30:43.466Z,48.43
2018-11-01T18:33:11.868Z,49.63
2018-11-01T18:35:40.149Z,46.33
2018-11-01T18:38:08.506Z,49.00
2018-11-01T18:40:36.821Z,86.83
2018-11-01T18:43:05.160Z,56.00
2018-11-01T18:45:33.496Z,46.00
2018-11-01T18:48:01.251Z,42.73
2018-11-01T18:50:29.582Z,45.90
2018-11-01T18:52:58.534Z,41.73
2018-11-01T18:55:26.868Z,43.73
2018-11-01T18:57:54.616Z,41.27
2018-11-01T19:00:23.590Z,40.77
2018-11-01T19:02:51.864Z,40.77
2018-11-01T19:05:20.192Z,41.37
2018-11-01T19:07:47.957Z,42.70
2018-11-01T19:10:16.856Z,40.90
2018-11-01T19:12:44.614Z,43.83
2018-11-01T19:15:13.527Z,42.60
2018-11-01T19:17:41.861Z,38.23
2018-11-01T19:20:10.195Z,51.50
2018-11-01T19:22:37.985Z,118.50
2018-11-01T19:25:06.940Z,44.40
2018-11-01T19:27:35.523Z,40.97
2018-11-01T19:30:03.673Z,41.17
2018-11-01T19:32:31.518Z,43.90
2018-11-01T19:35:00.532Z,43.53
2018-11-01T19:37:28.894Z,46.23
2018-11-01T19:39:56.666Z,44.57
2018-11-01T19:42:24.978Z,45.30
2018-11-01T19:44:53.892Z,43.77
2018-11-01T19:47:22.220Z,45.70
2018-11-01T19:49:50.671Z,41.63
2018-11-01T19:52:18.928Z,44.47
2018-11-01T19:54:50.513Z,48.80
2018-11-01T19:57:17.971Z,53.27
2018-11-01T19:59:46.936Z,44.93
2018-11-01T20:02:15.485Z,48.83
2018-11-01T20:04:43.235Z,44.50
2018-11-01T20:07:12.191Z,41.53
2018-11-01T20:09:40.605Z,50.13
2018-11-01T20:12:09.115Z,45.40
2018-11-01T20:14:37.498Z,45.17
2018-11-01T20:17:05.878Z,42.80
2018-11-01T20:19:34.721Z,46.53
2018-11-01T20:22:03.051Z,50.17
2018-11-01T20:24:31.401Z,45.90
2018-11-01T20:26:59.155Z,45.53
2018-11-01T20:29:28.086Z,45.63
2018-11-01T20:31:56.779Z,41.50
2018-11-01T20:34:24.815Z,55.83
2018-11-01T20:36:53.153Z,47.57
2018-11-01T20:39:21.529Z,49.13
2018-11-01T20:41:49.290Z,42.93
2018-11-01T20:44:18.164Z,46.33
2018-11-01T20:46:46.827Z,47.87
2018-11-01T20:49:14.580Z,48.77
2018-11-01T20:51:43.513Z,48.80
2018-11-01T20:54:11.284Z,44.80
2018-11-01T20:56:40.247Z,50.00
2018-11-01T20:59:08.634Z,51.97
2018-11-01T21:01:36.972Z,56.07
2018-11-01T21:04:05.365Z,51.13
2018-11-01T21:06:33.717Z,65.53
2018-11-01T21:09:01.485Z,47.00
2018-11-01T21:14:35.384Z,53.43
2018-11-01T21:17:03.352Z,48.33
2018-11-01T21:19:32.197Z,48.60
2018-11-01T21:22:00.528Z,46.50
2018-11-01T21:24:28.278Z,49.80
2018-11-01T21:26:56.626Z,46.43
2018-11-01T21:29:26.734Z,51.00
2018-11-01T21:31:55.075Z,53.00
2018-11-01T21:34:23.449Z,48.57
2018-11-01T21:36:51.726Z,50.00
2018-11-01T21:39:19.657Z,47.53
2018-11-01T21:41:48.457Z,43.33
2018-11-01T21:44:16.813Z,46.67
2018-11-01T21:46:45.153Z,42.63
2018-11-01T21:49:13.403Z,49.73
2018-11-01T21:51:41.753Z,47.90
2018-11-01T21:54:10.673Z,43.73
2018-11-01T21:56:39.011Z,49.27
2018-11-01T21:59:06.845Z,46.20
2018-11-01T22:01:35.811Z,49.77
2018-11-01T22:04:03.565Z,46.23
2018-11-01T22:06:31.983Z,131.02
2018-11-01T22:09:00.321Z,52.90
2018-11-01T22:11:29.246Z,55.07
2018-11-01T22:13:57.577Z,44.40
2018-11-01T22:16:25.925Z,43.00
2018-11-01T22:18:54.297Z,51.83
2018-11-01T22:21:22.628Z,46.23
2018-11-01T22:23:50.988Z,45.80
2018-11-01T22:26:19.324Z,46.30
2018-11-01T22:28:48.976Z,49.33
2018-11-01T22:31:17.195Z,49.67
2018-11-01T22:39:30.126Z,48.80
2018-11-01T22:41:58.469Z,49.97
2018-11-01T22:44:27.376Z,46.50
2018-11-01T22:46:55.705Z,43.50
2018-11-01T22:49:24.413Z,38.87
2018-11-01T22:51:52.188Z,40.93
2018-11-01T22:54:21.130Z,50.27
2018-11-01T22:56:48.903Z,42.50
2018-11-01T22:59:17.254Z,41.50
2018-11-01T23:01:45.584Z,48.43
2018-11-01T23:04:14.715Z,39.53
2018-11-01T23:06:42.478Z,40.13
2018-11-01T23:09:11.636Z,42.50
2018-11-01T23:11:39.762Z,41.70
2018-11-01T23:14:08.096Z,40.37
2018-11-01T23:16:36.436Z,42.77
2018-11-01T23:19:04.171Z,42.50
2018-11-01T23:21:33.118Z,39.23
2018-11-01T23:24:00.892Z,44.50
2018-11-01T23:26:29.886Z,36.33
2018-11-01T23:28:57.916Z,36.33
2018-11-01T23:31:26.249Z,36.57
2018-11-01T23:33:55.197Z,36.83
2018-11-01T23:36:23.008Z,35.50
2018-11-01T23:38:57.028Z,36.97
2018-11-01T23:41:30.948Z,37.07
2018-11-01T23:44:04.937Z,31.53
2018-11-01T23:46:38.818Z,42.63
2018-11-01T23:49:07.196Z,35.67
2018-11-01T23:51:34.957Z,36.90
2018-11-01T23:54:03.305Z,39.00
2018-11-01T23:56:32.208Z,43.20
2018-11-01T23:59:00.561Z,36.93
